Etusivu
METAR-TAF:

METAR-TAF

Lentoasemat :

Berlevåg, Norja

Leveyspiiri: 70-52N, Pituuspiiri: 029-02E, korkeus merenpinnasta: 1 m

Tämänhetkinen sää

Tämä raportti tehtiin 1 tunti ja 13 minuuttia sitten, kello 14.50 UTC
Tuuli 10 kn idästä
Lämpötila 7°C
Kosteus 93%
Ilmanpaine 1002 hPa
Näkyvyys 10 km tai enemmän
Hajonneita pilviä 400 ft:n korkeudessa
utua

METAR: ENBV 211450Z 09010KT 9999 BR BKN004 07/06 Q1002

Aika: 18:03 (16:03 UTC)

Sääennuste

Tämä raportti tehtiin 2 tuntia ja 3 minuuttia sitten, kello 14.00 UTC
Ennuste voimassa 21. päivästä klo 15 UTC - 21. päivään klo 21 UTC
Tuuli 12 kn idästä
Näkyvyys 10 km tai enemmän
Hajonneita pilviä 800 ft:n korkeudessa
Ajoittain
21. päivästä klo 15 UTC - 21. päivään klo 21 UTC
Näkyvyys: 2000 m
Hajonneita pilviä 300 ft:n korkeudessa
utua, tihkusadetta

TAF: ENBV 211400Z 2115/2121 09012KT 9999 BKN008 TEMPO 2115/2121 2000 BR DZ BKN003

Säähavainnot ja -ennusteet yli 4000 lentoasemalta (METAR- ja TAF-raportit).

Käytössä olevat sääasemat on merkitty karttaan keltaisilla ja punaisilla pisteillä.

Aseta hiiri pisteen päälle nähdäksesi sääaseman nimen.

Klikkaa sitten nähdäksesi säähavainnot ja -ennusteet.

Kartan vaihtaminen: klikkaa mustalla rastilla varustettuja vihreitä pisteitä, niin voit zoomata sisään; viivalla varustettua vihreää pistettä, niin voit zoomata ulos tai vihreitä nuolia, niin pääset viereisille kartoille.


METAR-TAF: